Time;durP1;ratioP1;P1;durP2;ratioP2;P2;SDS_P1;SDS_P2;PMS_P1;PMS_P2;Temp;Humidity;BMP_temperature;BMP_pressure;BME280_temperature;BME280_humidity;BME280_pressure;Samples;Min_cycle;Max_cycle;Signal;HPM_P1;HPM_P2
2021/10/12 00:01:21;;;;;;;12.80;8.23;;;26.10;99.90;;;;;;1884853;75;21096;-80
2021/10/12 00:03:52;;;;;;;10.65;7.30;;;26.10;99.90;;;;;;1917406;73;21522;-79
2021/10/12 00:06:24;;;;;;;11.60;8.78;;;26.10;99.90;;;;;;1927187;73;21266;-79
2021/10/12 00:08:54;;;;;;;9.40;7.37;;;26.10;99.90;;;;;;1915584;73;21111;-81
2021/10/12 00:11:25;;;;;;;7.95;6.70;;;26.10;99.90;;;;;;1900499;72;21079;-78
2021/10/12 00:13:56;;;;;;;9.28;7.22;;;26.10;99.90;;;;;;1915344;73;21122;-78
2021/10/12 00:16:30;;;;;;;8.58;7.28;;;26.10;99.90;;;;;;1914545;73;21170;-78
2021/10/12 00:19:01;;;;;;;12.50;8.35;;;26.10;99.90;;;;;;1894738;74;21128;-79
2021/10/12 00:21:31;;;;;;;11.03;8.33;;;26.10;99.90;;;;;;1903124;73;21185;-79
2021/10/12 00:24:04;;;;;;;10.35;7.92;;;26.20;99.90;;;;;;1903099;74;21615;-79
2021/10/12 00:26:34;;;;;;;12.05;9.40;;;26.20;99.90;;;;;;1873896;74;21154;-80
2021/10/12 00:29:05;;;;;;;13.70;9.48;;;26.20;99.90;;;;;;1920760;73;21751;-79
2021/10/12 00:31:38;;;;;;;11.25;9.28;;;26.20;99.90;;;;;;1873469;74;21133;-79
2021/10/12 00:34:09;;;;;;;10.28;8.00;;;26.20;99.90;;;;;;1918370;73;21146;-79
2021/10/12 00:36:41;;;;;;;9.35;7.70;;;26.30;99.90;;;;;;1916981;73;22345;-79
2021/10/12 00:39:11;;;;;;;9.58;7.62;;;26.30;99.90;;;;;;1912706;73;21221;-79
2021/10/12 00:41:45;;;;;;;10.75;8.78;;;26.30;99.90;;;;;;1924900;73;21157;-79
2021/10/12 00:44:16;;;;;;;10.35;7.78;;;26.40;99.90;;;;;;1868963;73;21202;-81
2021/10/12 00:46:47;;;;;;;12.85;8.20;;;26.40;99.90;;;;;;1877658;74;21125;-80
2021/10/12 00:49:17;;;;;;;12.18;7.75;;;26.40;99.90;;;;;;1908381;73;21104;-81
2021/10/12 00:51:48;;;;;;;8.00;7.03;;;26.50;99.90;;;;;;1893868;73;21189;-79
2021/10/12 00:54:19;;;;;;;9.55;7.92;;;26.50;99.90;;;;;;1876465;74;21126;-80
2021/10/12 00:56:50;;;;;;;10.63;7.10;;;26.50;99.90;;;;;;1890372;74;21689;-80
2021/10/12 00:59:21;;;;;;;10.20;7.95;;;26.50;99.90;;;;;;1885239;74;21137;-80
2021/10/12 01:01:53;;;;;;;11.25;8.65;;;26.60;99.90;;;;;;1928309;74;21666;-80
2021/10/12 01:04:27;;;;;;;10.08;8.00;;;26.60;99.90;;;;;;1942693;73;21218;-80
2021/10/12 01:06:58;;;;;;;13.58;8.78;;;26.70;99.90;;;;;;1899606;74;21166;-78
2021/10/12 01:09:33;;;;;;;10.30;7.75;;;26.70;99.90;;;;;;1913684;74;21138;-80
2021/10/12 01:12:04;;;;;;;10.20;6.87;;;26.70;99.90;;;;;;1935054;73;21063;-80
2021/10/12 01:14:35;;;;;;;10.90;7.47;;;26.70;99.90;;;;;;1910017;74;21214;-79
2021/10/12 01:17:06;;;;;;;9.88;6.60;;;26.80;99.90;;;;;;1887646;74;21154;-80
2021/10/12 01:19:37;;;;;;;8.98;7.17;;;26.90;99.90;;;;;;1900363;73;21142;-80
2021/10/12 01:22:13;;;;;;;12.13;6.90;;;27.00;99.90;;;;;;1911323;74;21130;-81
2021/10/12 01:24:47;;;;;;;8.83;6.05;;;27.00;99.90;;;;;;1884482;74;21161;-80
2021/10/12 01:27:20;;;;;;;15.68;6.72;;;27.10;99.90;;;;;;1871485;74;21204;-80
2021/10/12 01:29:54;;;;;;;10.15;7.50;;;27.20;99.90;;;;;;1892629;74;21700;-79
2021/10/12 01:32:24;;;;;;;8.63;6.87;;;27.20;99.90;;;;;;1903407;73;21298;-81
2021/10/12 01:34:57;;;;;;;10.30;7.30;;;27.30;99.90;;;;;;1894060;74;21142;-82
2021/10/12 01:37:30;;;;;;;10.53;6.92;;;27.40;99.90;;;;;;1921296;74;21205;-79
2021/10/12 01:40:06;;;;;;;10.50;7.97;;;27.40;99.90;;;;;;1911765;73;21095;-81
2021/10/12 01:42:37;;;;;;;11.38;7.97;;;27.40;99.90;;;;;;1884265;75;21720;-81
2021/10/12 01:45:11;;;;;;;12.18;9.55;;;27.50;99.90;;;;;;1902099;73;21075;-81
2021/10/12 01:47:43;;;;;;;11.73;8.30;;;27.60;99.90;;;;;;1910310;73;21580;-81
2021/10/12 01:50:16;;;;;;;12.65;7.78;;;27.60;99.90;;;;;;1911674;73;21122;-81
2021/10/12 01:52:47;;;;;;;8.98;7.40;;;27.70;99.90;;;;;;1907622;73;21103;-81
2021/10/12 01:55:21;;;;;;;13.58;8.40;;;27.80;99.90;;;;;;1906953;74;21207;-81
2021/10/12 01:57:52;;;;;;;10.55;8.10;;;27.80;99.90;;;;;;1843971;74;21161;-81
2021/10/12 02:00:24;;;;;;;12.53;7.87;;;27.90;99.90;;;;;;1884902;74;21190;-80
2021/10/12 02:02:54;;;;;;;12.68;8.08;;;28.00;99.70;;;;;;1943143;73;21074;-82
2021/10/12 02:05:26;;;;;;;10.58;8.10;;;28.00;99.70;;;;;;1870711;74;21279;-80
2021/10/12 02:07:57;;;;;;;12.70;8.43;;;28.10;99.60;;;;;;1929828;73;21083;-83
2021/10/12 02:10:27;;;;;;;10.18;7.92;;;28.20;99.40;;;;;;1935968;73;21215;-81
2021/10/12 02:12:58;;;;;;;11.22;8.03;;;28.30;99.40;;;;;;1918808;73;21205;-81
2021/10/12 02:15:29;;;;;;;11.80;7.92;;;28.40;99.20;;;;;;1896398;74;21302;-83
2021/10/12 02:18:00;;;;;;;15.32;9.75;;;28.50;99.20;;;;;;1909297;73;21143;-81
2021/10/12 02:20:31;;;;;;;11.00;8.13;;;28.50;99.10;;;;;;1929595;73;21174;-82
2021/10/12 02:23:02;;;;;;;9.63;7.42;;;28.60;99.00;;;;;;1907293;74;21165;-81
2021/10/12 02:25:32;;;;;;;11.65;8.63;;;28.70;98.80;;;;;;1873122;75;21210;-82
2021/10/12 02:28:03;;;;;;;9.90;7.28;;;28.80;98.60;;;;;;1898546;74;21144;-81
2021/10/12 02:30:35;;;;;;;9.18;7.90;;;28.70;98.40;;;;;;1911459;74;21138;-81
2021/10/12 02:33:06;;;;;;;11.53;9.00;;;28.70;98.20;;;;;;1888629;74;21208;-81
2021/10/12 02:35:37;;;;;;;9.40;6.92;;;28.60;98.30;;;;;;1883887;74;21609;-82
2021/10/12 02:38:08;;;;;;;9.33;6.70;;;28.50;98.40;;;;;;1870965;75;21227;-80
2021/10/12 02:40:40;;;;;;;8.58;7.42;;;28.50;98.30;;;;;;1899038;74;21115;-81
2021/10/12 02:43:11;;;;;;;8.25;6.00;;;28.40;98.40;;;;;;1890975;74;21114;-74
2021/10/12 02:45:42;;;;;;;7.78;6.35;;;28.40;98.40;;;;;;1901631;74;21221;-73
2021/10/12 02:48:12;;;;;;;8.58;6.03;;;28.50;98.50;;;;;;1914475;73;21068;-73
2021/10/12 02:50:44;;;;;;;6.67;5.92;;;28.50;98.20;;;;;;1909427;73;21597;-72
2021/10/12 02:53:18;;;;;;;7.53;5.15;;;28.60;98.20;;;;;;1918514;73;21148;-72
2021/10/12 02:55:49;;;;;;;7.03;5.37;;;28.70;97.50;;;;;;1929086;73;21186;-73
2021/10/12 02:58:20;;;;;;;5.87;5.10;;;28.90;97.30;;;;;;1904320;74;21135;-73
2021/10/12 03:00:51;;;;;;;6.97;5.62;;;29.00;97.20;;;;;;1905269;73;21086;-73
2021/10/12 03:03:23;;;;;;;10.48;6.67;;;29.30;97.00;;;;;;1918137;73;21216;-73
2021/10/12 03:05:53;;;;;;;7.53;6.10;;;29.50;96.80;;;;;;1885334;74;21094;-73
2021/10/12 03:08:25;;;;;;;7.87;6.33;;;29.70;96.60;;;;;;1912067;73;21132;-73
2021/10/12 03:10:56;;;;;;;7.53;5.85;;;29.90;96.10;;;;;;1914545;74;21188;-72
2021/10/12 03:13:27;;;;;;;9.88;5.67;;;30.00;95.80;;;;;;1909060;74;21753;-72
2021/10/12 03:15:58;;;;;;;10.58;6.22;;;30.10;95.90;;;;;;1884716;74;21217;-72
2021/10/12 03:18:32;;;;;;;8.85;5.83;;;30.30;95.40;;;;;;1894504;74;21195;-72
2021/10/12 03:21:03;;;;;;;6.10;4.83;;;30.40;94.80;;;;;;1887610;74;21154;-72
2021/10/12 03:23:34;;;;;;;6.45;5.35;;;30.50;94.40;;;;;;1896267;73;21141;-72
2021/10/12 03:26:04;;;;;;;7.80;5.42;;;30.60;94.60;;;;;;1878944;74;21269;-72
2021/10/12 03:28:35;;;;;;;5.47;4.80;;;30.80;94.20;;;;;;1899412;74;21563;-71
2021/10/12 03:31:06;;;;;;;7.72;5.20;;;30.90;93.10;;;;;;1931519;73;21171;-72
2021/10/12 03:33:37;;;;;;;5.97;5.37;;;31.00;92.80;;;;;;1927953;73;21196;-73
2021/10/12 03:36:17;;;;;;;6.67;5.10;;;31.00;93.00;;;;;;1938598;73;21216;-73
2021/10/12 03:38:40;;;;;;;7.28;5.53;;;31.10;92.90;;;;;;1918232;73;21645;-73
2021/10/12 03:41:12;;;;;;;6.72;4.78;;;31.30;92.60;;;;;;1941020;73;21511;-73
2021/10/12 03:43:43;;;;;;;6.20;4.75;;;31.40;92.00;;;;;;1899767;73;21504;-72
2021/10/12 03:46:14;;;;;;;6.17;4.30;;;31.50;92.00;;;;;;1886683;74;21090;-72
2021/10/12 03:48:45;;;;;;;5.05;4.20;;;31.60;91.90;;;;;;1899303;74;21138;-71
2021/10/12 03:51:15;;;;;;;7.97;5.05;;;31.70;92.10;;;;;;1901243;74;21176;-72
2021/10/12 03:53:46;;;;;;;5.30;4.35;;;31.70;91.70;;;;;;1898140;74;21091;-72
2021/10/12 03:56:17;;;;;;;5.65;4.95;;;31.90;90.50;;;;;;1903304;73;21648;-72
2021/10/12 03:58:48;;;;;;;5.37;4.83;;;32.00;90.80;;;;;;1902494;73;21162;-71
2021/10/12 04:01:19;;;;;;;9.03;5.97;;;32.10;90.90;;;;;;1955021;73;21313;-72
2021/10/12 04:03:52;;;;;;;5.60;4.80;;;32.10;90.50;;;;;;1898501;72;21141;-71
2021/10/12 04:06:26;;;;;;;6.08;5.03;;;32.20;90.30;;;;;;1850343;75;21164;-73
2021/10/12 04:08:57;;;;;;;7.83;4.67;;;32.20;90.50;;;;;;1910943;73;21209;-72
2021/10/12 04:11:27;;;;;;;5.65;4.60;;;32.30;90.40;;;;;;1917166;73;21110;-73
2021/10/12 04:13:58;;;;;;;6.75;4.80;;;32.40;89.80;;;;;;1912640;73;21130;-73
2021/10/12 04:16:34;;;;;;;5.30;4.53;;;;;;;;;;1929382;73;21149;-74
2021/10/12 04:19:04;;;;;;;5.75;4.95;;;32.40;88.80;;;;;;1898400;73;21220;-73
2021/10/12 04:21:36;;;;;;;7.47;4.92;;;32.50;89.90;;;;;;1874849;74;21172;-73
2021/10/12 04:24:07;;;;;;;6.58;5.33;;;32.60;89.50;;;;;;1905196;74;21135;-72
2021/10/12 04:26:39;;;;;;;6.42;5.20;;;32.60;88.80;;;;;;1922061;72;21157;-72
2021/10/12 04:29:13;;;;;;;6.62;4.67;;;32.60;89.60;;;;;;1900767;74;21073;-72
2021/10/12 04:31:44;;;;;;;7.15;4.67;;;32.60;89.60;;;;;;1864210;75;21207;-72
2021/10/12 04:34:16;;;;;;;6.55;5.20;;;32.50;90.00;;;;;;1925028;73;21174;-74
2021/10/12 04:36:46;;;;;;;6.47;5.40;;;32.30;90.10;;;;;;1899431;73;21166;-72
2021/10/12 04:39:23;;;;;;;9.25;5.22;;;32.10;90.10;;;;;;1902396;74;21088;-73
2021/10/12 04:41:54;;;;;;;8.20;5.40;;;31.90;90.80;;;;;;1931471;73;21515;-72
2021/10/12 04:44:27;;;;;;;6.62;5.17;;;31.70;90.80;;;;;;1938358;73;21093;-72
2021/10/12 04:46:58;;;;;;;6.10;5.25;;;31.50;91.10;;;;;;1905163;73;21185;-72
2021/10/12 04:49:33;;;;;;;5.97;5.37;;;31.30;91.20;;;;;;1904416;73;21511;-72
2021/10/12 04:52:10;;;;;;;8.55;5.62;;;31.30;91.80;;;;;;1859594;75;21145;-72
2021/10/12 04:54:37;;;;;;;9.45;5.87;;;31.10;92.30;;;;;;1893652;74;21191;-72
2021/10/12 04:57:08;;;;;;;9.33;5.58;;;31.00;93.10;;;;;;1891997;74;21159;-72
2021/10/12 04:59:42;;;;;;;10.25;6.22;;;30.80;94.30;;;;;;1893229;73;21180;-73
2021/10/12 05:02:23;;;;;;;9.03;5.70;;;30.70;94.40;;;;;;1898550;74;21123;-73
2021/10/12 05:04:53;;;;;;;9.68;6.75;;;30.90;96.70;;;;;;1925255;73;21199;-73
2021/10/12 05:07:24;;;;;;;7.20;6.33;;;30.70;94.40;;;;;;1899255;73;21593;-72
2021/10/12 05:09:57;;;;;;;6.75;5.22;;;30.60;96.80;;;;;;1902523;73;21087;-72
2021/10/12 05:12:28;;;;;;;8.03;6.22;;;30.60;97.40;;;;;;1900311;74;21452;-72
2021/10/12 05:14:58;;;;;;;7.40;5.70;;;30.40;97.80;;;;;;1881817;74;21147;-72
2021/10/12 05:17:46;;;;;;;8.00;6.22;;;30.50;96.70;;;;;;1916781;73;21843;-72
2021/10/12 05:20:02;;;;;;;8.95;6.53;;;30.20;96.60;;;;;;1914104;73;21744;-72
2021/10/12 05:22:33;;;;;;;9.00;6.17;;;30.20;95.70;;;;;;1903213;74;21165;-72
2021/10/12 05:25:04;;;;;;;8.98;6.85;;;30.20;94.80;;;;;;1908059;72;21210;-72
2021/10/12 05:27:36;;;;;;;13.80;11.57;;;30.30;93.90;;;;;;1866683;74;21674;-72
2021/10/12 05:30:10;;;;;;;9.28;7.25;;;30.20;93.60;;;;;;1906928;74;21688;-72
2021/10/12 05:32:42;;;;;;;9.33;6.90;;;30.40;94.20;;;;;;1894674;74;21326;-72
2021/10/12 05:35:12;;;;;;;10.48;7.47;;;30.40;94.20;;;;;;1894553;74;21710;-72
2021/10/12 05:37:43;;;;;;;9.90;6.20;;;30.70;94.00;;;;;;1896795;73;21681;-72
2021/10/12 05:40:16;;;;;;;8.70;5.95;;;31.00;94.30;;;;;;1899834;74;21190;-72
2021/10/12 05:42:46;;;;;;;7.17;5.62;;;31.30;93.20;;;;;;1899042;74;21606;-73
2021/10/12 05:45:17;;;;;;;8.33;5.72;;;31.40;95.30;;;;;;1897743;73;21146;-71
2021/10/12 05:47:49;;;;;;;7.15;5.75;;;31.40;93.60;;;;;;1901521;73;21079;-72
2021/10/12 05:50:20;;;;;;;6.70;5.83;;;31.50;94.50;;;;;;1889077;74;21068;-72
2021/10/12 05:53:26;;;;;;;9.05;6.42;;;31.30;92.60;;;;;;1893546;74;21202;-72
2021/10/12 05:58:07;;;;;;;8.60;6.62;;;31.10;91.70;;;;;;1917197;72;21146;-71
2021/10/12 06:00:28;;;;;;;7.50;6.60;;;31.00;91.60;;;;;;1925865;73;21882;-72
2021/10/12 06:02:59;;;;;;;8.15;6.80;;;30.90;91.60;;;;;;1899687;73;21138;-73
2021/10/12 06:05:30;;;;;;;7.58;6.25;;;31.00;91.80;;;;;;1911077;73;21157;-72
2021/10/12 06:08:01;;;;;;;8.05;6.42;;;31.20;91.60;;;;;;1924759;73;21200;-72
2021/10/12 06:10:31;;;;;;;9.83;6.42;;;31.30;91.20;;;;;;1886752;74;21189;-72
2021/10/12 06:13:08;;;;;;;12.60;6.83;;;31.30;91.00;;;;;;1902175;73;21176;-72
2021/10/12 06:15:35;;;;;;;9.05;6.95;;;31.30;90.80;;;;;;1916833;73;21117;-72
2021/10/12 06:18:06;;;;;;;14.75;9.95;;;31.30;91.00;;;;;;1922381;73;21659;-72
2021/10/12 06:20:38;;;;;;;8.70;6.47;;;31.30;91.10;;;;;;1912445;73;21658;-71
2021/10/12 06:23:10;;;;;;;8.65;6.53;;;31.30;90.80;;;;;;1861404;74;21618;-72
2021/10/12 06:25:40;;;;;;;10.68;8.03;;;31.40;91.00;;;;;;1928842;73;21110;-73
2021/10/12 06:28:14;;;;;;;9.23;7.03;;;31.40;91.10;;;;;;1932525;73;21161;-72
2021/10/12 06:30:44;;;;;;;7.28;5.30;;;31.40;91.10;;;;;;1885194;74;21293;-73
2021/10/12 06:33:15;;;;;;;7.17;5.40;;;31.30;91.60;;;;;;1925231;73;21252;-73
2021/10/12 06:35:46;;;;;;;8.65;5.20;;;31.20;92.20;;;;;;1887905;74;21190;-73
2021/10/12 06:38:16;;;;;;;8.50;4.67;;;31.10;92.30;;;;;;1894406;73;21641;-72
2021/10/12 06:40:47;;;;;;;5.12;4.55;;;31.00;92.50;;;;;;1906841;73;21736;-76
2021/10/12 06:43:18;;;;;;;9.15;5.50;;;30.90;92.60;;;;;;1910952;74;21075;-73
2021/10/12 06:45:49;;;;;;;5.40;4.30;;;30.70;92.70;;;;;;1933896;73;21649;-73
2021/10/12 06:48:20;;;;;;;5.37;3.90;;;30.50;92.60;;;;;;1944953;72;21802;-73
2021/10/12 06:50:51;;;;;;;5.15;4.20;;;30.40;92.60;;;;;;1897124;73;21650;-72
2021/10/12 06:53:23;;;;;;;4.58;4.03;;;30.30;92.90;;;;;;1882957;74;21217;-72
2021/10/12 06:55:54;;;;;;;5.92;4.28;;;30.20;93.10;;;;;;1893248;74;21243;-72
2021/10/12 06:58:24;;;;;;;6.35;4.50;;;30.20;93.00;;;;;;1894904;74;21222;-72
2021/10/12 07:00:56;;;;;;;4.45;3.80;;;30.10;93.20;;;;;;1889409;73;21947;-72
2021/10/12 07:03:27;;;;;;;5.95;3.87;;;30.00;93.30;;;;;;1892395;74;21169;-71
2021/10/12 07:05:58;;;;;;;4.05;3.45;;;30.00;93.30;;;;;;1911161;73;21151;-72
2021/10/12 07:08:29;;;;;;;6.55;3.55;;;29.90;92.90;;;;;;1889921;74;21093;-71
2021/10/12 07:10:59;;;;;;;5.03;3.47;;;29.90;92.90;;;;;;1880333;74;21668;-71
2021/10/12 07:13:30;;;;;;;4.30;3.22;;;29.80;92.90;;;;;;1893783;74;21689;-72
2021/10/12 07:16:01;;;;;;;4.78;3.55;;;29.80;92.50;;;;;;1898273;74;21170;-72
2021/10/12 07:18:32;;;;;;;4.85;3.50;;;29.80;92.70;;;;;;1897824;73;21142;-73
2021/10/12 07:21:02;;;;;;;4.78;3.90;;;29.80;93.50;;;;;;1884909;73;21598;-72
2021/10/12 07:23:34;;;;;;;4.58;3.52;;;29.80;93.70;;;;;;1919842;74;21095;-72
2021/10/12 07:26:05;;;;;;;9.50;3.85;;;29.90;93.80;;;;;;1915018;74;21255;-72
2021/10/12 07:28:36;;;;;;;5.37;4.17;;;29.80;94.30;;;;;;1883180;75;21547;-72
2021/10/12 07:31:06;;;;;;;5.25;3.90;;;29.70;94.00;;;;;;1891804;74;21206;-72
2021/10/12 07:33:37;;;;;;;5.55;3.83;;;29.70;94.00;;;;;;1897186;73;21102;-72
2021/10/12 07:36:08;;;;;;;5.17;3.75;;;29.70;94.00;;;;;;1888437;74;21177;-71
2021/10/12 07:38:39;;;;;;;5.05;3.72;;;29.70;94.00;;;;;;1876514;74;22102;-71
2021/10/12 07:41:12;;;;;;;12.85;7.03;;;29.70;94.10;;;;;;1862648;75;21259;-72
2021/10/12 07:43:43;;;;;;;5.75;3.80;;;29.60;94.30;;;;;;1895333;73;21136;-72
2021/10/12 07:46:14;;;;;;;5.33;3.75;;;29.60;94.30;;;;;;1885929;74;21198;-72
2021/10/12 07:48:45;;;;;;;6.70;4.10;;;29.60;94.50;;;;;;1914513;73;21751;-72
2021/10/12 07:51:17;;;;;;;3.65;3.27;;;28.60;95.90;;;;;;1896572;73;21232;-72
2021/10/12 07:53:48;;;;;;;4.08;3.00;;;29.50;94.50;;;;;;1871730;74;21209;-73
2021/10/12 07:56:35;;;;;;;4.92;3.67;;;29.60;94.30;;;;;;1869604;74;21854;-72
2021/10/12 07:58:52;;;;;;;4.30;3.35;;;29.60;96.40;;;;;;1933681;73;21113;-71
2021/10/12 08:01:22;;;;;;;6.60;3.52;;;29.60;93.90;;;;;;1863530;75;21683;-72
2021/10/12 08:03:53;;;;;;;5.08;3.98;;;29.60;96.90;;;;;;1900772;73;21142;-72
2021/10/12 08:06:24;;;;;;;5.05;3.83;;;29.60;94.00;;;;;;1901687;74;21067;-71
2021/10/12 08:08:56;;;;;;;6.30;3.80;;;29.70;94.50;;;;;;1902331;74;22381;-72
2021/10/12 08:11:28;;;;;;;6.55;4.60;;;29.80;98.10;;;;;;1921544;73;21091;-72
2021/10/12 08:14:05;;;;;;;7.10;4.47;;;29.80;99.90;;;;;;1924298;74;21181;-72
2021/10/12 08:16:32;;;;;;;7.15;4.15;;;29.80;96.40;;;;;;1889503;74;21138;-71
2021/10/12 08:19:05;;;;;;;6.05;3.65;;;29.90;99.90;;;;;;1863340;74;21158;-71
2021/10/12 08:21:36;;;;;;;6.12;4.17;;;29.80;93.50;;;;;;1891711;74;21148;-71
2021/10/12 08:24:07;;;;;;;11.30;4.60;;;29.90;93.40;;;;;;1928392;73;21965;-72
2021/10/12 08:26:39;;;;;;;6.55;4.42;;;29.90;93.30;;;;;;1893222;73;21198;-73
2021/10/12 08:29:10;;;;;;;7.75;4.92;;;30.00;93.10;;;;;;1911907;73;21160;-72
2021/10/12 08:31:41;;;;;;;10.20;6.70;;;30.00;92.90;;;;;;1897011;74;21188;-72
2021/10/12 08:34:13;;;;;;;10.75;5.53;;;30.10;93.00;;;;;;1903136;74;21634;-72
2021/10/12 08:36:44;;;;;;;10.28;6.28;;;30.10;92.90;;;;;;1914831;73;21534;-72
2021/10/12 08:39:15;;;;;;;8.90;5.58;;;30.10;92.70;;;;;;1904431;74;21790;-71
2021/10/12 08:41:48;;;;;;;10.48;6.50;;;30.20;92.50;;;;;;1900868;74;21804;-72
2021/10/12 08:44:19;;;;;;;10.43;6.87;;;30.30;92.30;;;;;;1926516;73;21200;-72
2021/10/12 08:46:54;;;;;;;9.90;7.08;;;30.40;95.20;;;;;;1900401;74;21118;-71
2021/10/12 08:49:23;;;;;;;10.03;6.67;;;30.40;93.70;;;;;;1895402;74;21174;-71
2021/10/12 08:51:54;;;;;;;7.33;5.28;;;30.40;94.00;;;;;;1917777;74;21542;-71
2021/10/12 08:54:25;;;;;;;8.98;5.28;;;30.40;94.60;;;;;;1916576;74;21071;-72
2021/10/12 08:56:55;;;;;;;8.45;4.72;;;30.30;91.80;;;;;;1900431;73;21626;-72
2021/10/12 08:59:26;;;;;;;9.00;5.25;;;30.30;92.00;;;;;;1946200;73;21508;-72
2021/10/12 09:02:01;;;;;;;6.35;4.28;;;30.30;91.90;;;;;;1906872;74;21189;-72
2021/10/12 09:04:35;;;;;;;7.25;5.60;;;30.20;92.00;;;;;;1863896;75;21245;-71
2021/10/12 09:07:06;;;;;;;10.45;6.75;;;30.20;92.20;;;;;;1912494;73;21198;-72
2021/10/12 09:09:37;;;;;;;8.70;5.62;;;30.10;92.20;;;;;;1923998;72;21199;-72
2021/10/12 09:12:08;;;;;;;9.98;6.12;;;30.20;92.20;;;;;;1904962;73;21575;-72
2021/10/12 09:14:41;;;;;;;10.18;6.10;;;30.20;92.30;;;;;;1944476;72;21154;-72
2021/10/12 09:17:12;;;;;;;10.82;6.60;;;30.20;92.30;;;;;;1910450;73;21718;-72
2021/10/12 09:19:46;;;;;;;8.20;6.03;;;30.10;92.20;;;;;;1879807;74;21164;-72
2021/10/12 09:22:16;;;;;;;8.85;5.28;;;30.10;92.20;;;;;;1862181;75;21125;-72
2021/10/12 09:24:48;;;;;;;11.38;5.58;;;30.10;92.30;;;;;;1869169;74;21177;-72
2021/10/12 09:27:22;;;;;;;6.72;5.12;;;30.10;92.40;;;;;;1889016;75;21233;-72
2021/10/12 09:29:52;;;;;;;7.58;5.55;;;30.10;92.50;;;;;;1903862;74;21214;-72
2021/10/12 09:32:24;;;;;;;8.05;5.50;;;30.10;92.60;;;;;;1918077;74;21713;-72
2021/10/12 09:34:57;;;;;;;9.20;7.08;;;30.10;92.80;;;;;;1919819;73;21146;-72
2021/10/12 09:37:30;;;;;;;9.23;6.35;;;30.10;92.90;;;;;;1912300;74;21712;-72
2021/10/12 09:40:03;;;;;;;7.95;5.05;;;30.10;92.90;;;;;;1918463;73;21514;-72
2021/10/12 09:42:37;;;;;;;7.90;5.83;;;30.10;93.00;;;;;;1896175;74;21184;-72
2021/10/12 09:45:08;;;;;;;7.50;5.12;;;30.10;93.10;;;;;;1877784;74;21161;-72
2021/10/12 09:47:40;;;;;;;9.10;5.08;;;30.00;93.30;;;;;;1907821;73;21088;-73
2021/10/12 09:50:14;;;;;;;7.08;4.35;;;30.00;93.40;;;;;;1900348;74;21672;-73
2021/10/12 09:52:48;;;;;;;5.45;4.25;;;30.10;93.70;;;;;;1896952;74;21237;-73
2021/10/12 09:55:19;;;;;;;8.35;4.00;;;30.00;93.90;;;;;;1875593;74;21648;-72
2021/10/12 09:57:51;;;;;;;7.15;4.28;;;30.00;94.00;;;;;;1899312;73;21148;-73
2021/10/12 10:00:22;;;;;;;7.15;4.05;;;30.00;94.10;;;;;;1901858;74;21699;-72
2021/10/12 10:02:54;;;;;;;7.30;4.00;;;30.00;94.20;;;;;;1900379;74;21240;-72
2021/10/12 10:05:25;;;;;;;4.85;4.05;;;30.00;94.50;;;;;;1914683;73;21228;-72
2021/10/12 10:07:58;;;;;;;5.62;4.00;;;29.90;94.30;;;;;;1894212;74;21130;-72
2021/10/12 10:10:30;;;;;;;6.78;3.70;;;30.00;94.50;;;;;;1892346;74;21628;-73
2021/10/12 10:13:02;;;;;;;6.03;4.25;;;29.90;94.90;;;;;;1888017;74;21159;-73
2021/10/12 10:15:34;;;;;;;4.90;3.70;;;30.00;95.30;;;;;;1893975;74;21108;-73
2021/10/12 10:18:05;;;;;;;6.90;4.78;;;29.90;95.50;;;;;;1925431;73;21197;-73
2021/10/12 10:20:35;;;;;;;6.22;4.65;;;29.90;95.80;;;;;;1903835;73;21218;-73
2021/10/12 10:23:06;;;;;;;7.85;4.30;;;29.80;95.70;;;;;;1898021;74;21569;-73
2021/10/12 10:25:38;;;;;;;7.85;4.62;;;29.90;95.60;;;;;;1908108;74;21196;-73
2021/10/12 10:28:12;;;;;;;4.92;4.00;;;29.80;95.00;;;;;;1889857;74;21134;-73
2021/10/12 10:30:44;;;;;;;5.67;4.87;;;29.80;95.00;;;;;;1912956;72;21212;-73
2021/10/12 10:33:18;;;;;;;9.15;5.80;;;29.70;94.90;;;;;;1937593;73;21127;-72
2021/10/12 10:35:51;;;;;;;10.48;5.20;;;29.70;95.00;;;;;;1907699;73;21137;-72
2021/10/12 10:38:25;;;;;;;8.88;6.05;;;29.80;95.20;;;;;;1910377;73;21218;-72
2021/10/12 10:40:59;;;;;;;7.83;5.78;;;29.80;95.20;;;;;;1903369;73;21150;-72
2021/10/12 10:43:32;;;;;;;8.13;5.45;;;29.80;95.30;;;;;;1930931;73;21102;-72
2021/10/12 10:46:03;;;;;;;8.95;5.10;;;29.70;95.50;;;;;;1905546;72;21620;-72
2021/10/12 10:48:36;;;;;;;8.58;5.62;;;29.80;95.60;;;;;;1908585;73;21736;-72
2021/10/12 10:51:18;;;;;;;6.80;5.65;;;29.80;95.60;;;;;;1886229;74;21625;-72
2021/10/12 10:53:50;;;;;;;12.20;6.50;;;29.70;95.50;;;;;;1896103;74;21107;-73
2021/10/12 10:56:22;;;;;;;11.22;7.05;;;29.80;95.50;;;;;;1864740;75;21212;-72
2021/10/12 10:58:58;;;;;;;10.88;6.22;;;29.70;95.90;;;;;;1924530;73;21203;-74
2021/10/12 11:01:31;;;;;;;7.00;5.28;;;29.70;95.50;;;;;;1880785;74;21102;-72
2021/10/12 11:04:02;;;;;;;7.53;5.72;;;29.70;95.60;;;;;;1905476;74;21192;-72
2021/10/12 11:06:34;;;;;;;8.95;5.92;;;29.60;95.60;;;;;;1914097;73;21269;-73
2021/10/12 11:09:05;;;;;;;7.33;5.50;;;29.60;95.70;;;;;;1875596;74;21220;-73
2021/10/12 11:11:37;;;;;;;8.28;6.17;;;29.70;95.80;;;;;;1920215;73;21195;-73
2021/10/12 11:14:07;;;;;;;7.67;5.75;;;29.60;95.70;;;;;;1934378;73;21656;-73
2021/10/12 11:16:39;;;;;;;6.80;5.62;;;29.60;95.80;;;;;;1903259;74;21157;-72
2021/10/12 11:19:10;;;;;;;11.73;5.90;;;29.60;95.90;;;;;;1880645;74;21143;-73
2021/10/12 11:21:41;;;;;;;6.22;5.15;;;29.60;95.90;;;;;;1912548;72;21128;-72
2021/10/12 11:24:14;;;;;;;9.60;6.00;;;29.60;95.70;;;;;;1914461;73;21149;-72
2021/10/12 11:26:45;;;;;;;13.95;6.25;;;29.60;95.50;;;;;;1851179;76;21206;-72
2021/10/12 11:29:16;;;;;;;7.83;5.60;;;29.60;95.40;;;;;;1872541;74;21193;-72
2021/10/12 11:31:47;;;;;;;10.78;6.20;;;29.60;95.30;;;;;;1869874;75;21200;-73
2021/10/12 11:34:20;;;;;;;8.13;6.42;;;29.50;95.30;;;;;;1892119;74;21140;-73
2021/10/12 11:36:50;;;;;;;10.05;6.67;;;29.60;95.30;;;;;;1890833;74;21052;-73
2021/10/12 11:39:22;;;;;;;9.58;6.40;;;29.60;95.40;;;;;;1893556;73;21090;-73
2021/10/12 11:41:53;;;;;;;9.25;6.65;;;29.50;95.40;;;;;;1910996;73;21167;-73
2021/10/12 11:44:25;;;;;;;11.40;6.65;;;29.50;95.40;;;;;;1887136;74;21111;-73
2021/10/12 11:47:02;;;;;;;9.90;7.25;;;29.60;95.50;;;;;;1931407;73;21083;-73
2021/10/12 11:49:32;;;;;;;11.20;6.87;;;29.50;95.50;;;;;;1893004;74;21099;-72
2021/10/12 11:52:06;;;;;;;11.70;6.95;;;29.40;95.60;;;;;;1881023;75;21139;-72
2021/10/12 11:54:37;;;;;;;9.43;7.33;;;29.50;95.70;;;;;;1894073;74;21229;-73
2021/10/12 11:57:10;;;;;;;12.13;7.10;;;29.50;95.80;;;;;;1881069;74;21641;-72
2021/10/12 11:59:43;;;;;;;13.83;7.92;;;29.40;95.80;;;;;;1896551;74;21212;-73
2021/10/12 12:02:16;;;;;;;13.90;9.28;;;29.50;96.00;;;;;;1927499;73;21541;-73
2021/10/12 12:04:50;;;;;;;13.80;9.50;;;29.50;96.10;;;;;;1907007;74;21613;-72
2021/10/12 12:07:20;;;;;;;13.15;8.23;;;29.50;96.30;;;;;;1934915;74;21724;-72
2021/10/12 12:09:52;;;;;;;12.25;7.55;;;29.40;96.40;;;;;;1917178;73;21144;-72
2021/10/12 12:12:23;;;;;;;11.12;8.38;;;29.40;96.60;;;;;;1912578;73;21185;-73
2021/10/12 12:14:55;;;;;;;14.05;8.13;;;29.40;96.80;;;;;;1892542;74;21161;-73
2021/10/12 12:17:27;;;;;;;12.75;8.73;;;29.40;97.00;;;;;;1930101;73;21244;-71
2021/10/12 12:20:00;;;;;;;11.83;8.03;;;29.30;96.90;;;;;;1908159;73;21150;-72
2021/10/12 12:22:33;;;;;;;10.35;8.18;;;29.40;97.00;;;;;;1891509;74;21483;-72
2021/10/12 12:25:14;;;;;;;11.93;8.65;;;29.30;97.10;;;;;;1903016;72;21177;-72
2021/10/12 12:27:40;;;;;;;13.50;9.80;;;29.30;97.20;;;;;;1898750;74;21108;-72
2021/10/12 12:30:12;;;;;;;13.95;10.05;;;29.30;97.20;;;;;;1891093;74;21097;-72
2021/10/12 12:32:45;;;;;;;13.25;9.40;;;29.30;97.30;;;;;;1917907;73;21155;-81
2021/10/12 12:35:17;;;;;;;20.48;10.95;;;29.30;97.30;;;;;;1885381;74;21263;-80
2021/10/12 12:37:50;;;;;;;12.70;9.23;;;29.30;97.30;;;;;;1877025;75;21269;-82
2021/10/12 12:40:24;;;;;;;14.78;8.43;;;29.30;97.50;;;;;;1885765;74;21110;-81
2021/10/12 12:42:55;;;;;;;12.70;9.38;;;29.30;97.60;;;;;;1916578;73;21126;-82
2021/10/12 12:45:26;;;;;;;14.18;9.63;;;29.20;97.60;;;;;;1916747;73;21627;-82
2021/10/12 12:48:00;;;;;;;13.80;10.08;;;29.20;97.70;;;;;;1901637;73;21843;-82
2021/10/12 12:50:33;;;;;;;14.07;9.70;;;29.10;97.60;;;;;;1936277;73;21223;-81
2021/10/12 12:53:06;;;;;;;10.40;8.85;;;29.10;97.50;;;;;;1858220;75;21210;-82
2021/10/12 12:55:42;;;;;;;14.70;9.68;;;29.20;97.50;;;;;;1895658;73;21252;-82
2021/10/12 12:58:13;;;;;;;11.78;9.18;;;29.10;97.60;;;;;;1889872;73;21213;-82
2021/10/12 13:00:46;;;;;;;11.45;8.65;;;29.20;97.60;;;;;;1890844;75;21163;-81
2021/10/12 13:03:17;;;;;;;14.98;8.90;;;29.20;97.60;;;;;;1885393;73;21099;-81
2021/10/12 13:05:48;;;;;;;12.45;8.90;;;29.10;97.50;;;;;;1887058;74;21190;-81
2021/10/12 13:08:18;;;;;;;10.93;8.25;;;29.10;97.50;;;;;;1882236;74;21130;-81